Impacts TAF Board INFO
FOR SITUATIONAL AWARENESS. NOT TO BE USED FOR FLIGHT PLANNING PURPOSES.
IDs:

KMGM - Montgomery/Dannely F, AL, US

Issued at 1127 UTC 20 May 2018
Updated at 1219 UTC 20 May 2018
Potential Impact None Slight Moderate High
Time1153Z 20/13Z 20/14Z 20/15Z 20/16Z 20/17Z 20/18Z 20/19Z 20/20Z 20/21Z 20/22Z 20/23Z 21/00Z 21/01Z>>
Type OBS PRVL PRVL PRVL PRVL PRVL PRVL PRVL PRVL PRVL
  [PRB30]  
PRVL
  [PRB30]  
PRVL
  [PRB30]  
PRVL
  [PRB30]  
PRVL
VIS 4 3 >6 >6 >6 >6 >6 >6 >6 >6
  [6.21]  
>6
  [6.21]  
>6
  [6.21]  
>6
  [6.21]  
>6
CIG -- -- 15 15 15 15 -- -- -- --
  [50]  
--
  [50]  
--
  [50]  
--
  [50]  
--
Cover CLR SCT BKN BKN BKN BKN SCT SCT SCT SCT
  [BKN]  
SCT
  [BKN]  
SCT
  [BKN]  
SCT
  [BKN]  
SCT
FltCat MVFR MVFR MVFR MVFR MVFR MVFR VFR VFR VFR VFR
  [VFR]  
VFR
  [VFR]  
VFR
  [VFR]  
VFR
  [VFR]  
VFR
WX BR BR -- -- -- -- VCTS VCTS VCTS VCTS
  [TSRA]  
VCTS
  [TSRA]  
VCTS
  [TSRA]  
VCTS
  [TSRA]  
VCTS
WDir VRB VRB VRB VRB VRB VRB 110 110 110 110
[110]
110
[110]
110
[110]
110
[110]
110
WSpd 0 0 2 2 2 2 9 9 9 9
  [9]  
9
  [9]  
9
  [9]  
9
  [9]  
9
WGst -- -- -- -- -- -- -- -- -- --
  [--]  
--
  [--]  
--
  [--]  
--
  [--]  
--

Raw TAF
KMGM 201127Z 2012/2112 00000KT 3SM BR SCT005
  FM201400 VRB02KT P6SM BKN015
  FM201800 11009KT P6SM VCTS SCT050CB
  PROB30 2021/2101 P6SM TSRA BKN050CB
  FM210600 08005KT P6SM SCT250
  FM210900 08006KT P6SM OVC007


Raw METAR
KMGM 201153Z 00000KT 4SM BR CLR 22/21 A3010 RMK AO2 SLP189 T02220211 10233 20200 53013
KMGM 201053Z AUTO 21004KT 4SM BR CLR 21/20 A3007 RMK AO2 SLP181 T02110200
KMGM 200953Z AUTO 00000KT 5SM BR CLR 21/20 A3007 RMK AO2 SLP178 T02110200

METAR Board
Radar Display
Forecast Discussion

FOR SITUATIONAL AWARENESS. NOT TO BE USED FOR FLIGHT PLANNING PURPOSES.